createdAt,value
2022-12-25T00:01:21.822Z,71.03
2022-12-25T00:03:48.926Z,71.04
2022-12-25T00:06:15.742Z,71.89
2022-12-25T00:08:42.725Z,71.77
2022-12-25T00:11:12.766Z,71.04
2022-12-25T00:13:39.645Z,71.96
2022-12-25T00:16:13.374Z,72.04
2022-12-25T00:18:39.938Z,71.72
2022-12-25T00:21:07.121Z,70.72
2022-12-25T00:23:35.095Z,71.06
2022-12-25T00:26:05.645Z,70.78
2022-12-25T00:28:32.204Z,70.38
2022-12-25T00:30:58.874Z,70.70
2022-12-25T00:33:26.396Z,70.95
2022-12-25T00:36:00.367Z,70.55
2022-12-25T00:38:27.397Z,70.23
2022-12-25T00:40:54.170Z,70.30
2022-12-25T00:43:21.222Z,70.39
2022-12-25T00:45:56.063Z,70.76
2022-12-25T00:48:22.773Z,70.83
2022-12-25T00:50:49.312Z,70.84
2022-12-25T00:53:15.834Z,70.81
2022-12-25T00:55:42.712Z,70.54
2022-12-25T00:58:09.771Z,70.35
2022-12-25T01:00:39.892Z,70.27
2022-12-25T01:03:08.236Z,70.07
2022-12-25T01:05:35.420Z,70.20
2022-12-25T01:08:02.457Z,70.22
2022-12-25T01:10:29.421Z,70.28
2022-12-25T01:12:56.510Z,70.98
2022-12-25T01:15:23.346Z,70.35
2022-12-25T01:17:50.339Z,70.03
2022-12-25T01:20:21.432Z,69.75
2022-12-25T01:22:51.504Z,69.79
2022-12-25T01:25:18.430Z,70.36
2022-12-25T01:27:54.493Z,70.81
2022-12-25T01:30:21.466Z,70.77
2022-12-25T01:32:48.292Z,70.77
2022-12-25T01:35:18.012Z,70.23
2022-12-25T01:37:44.898Z,70.32
2022-12-25T01:40:12.372Z,70.44
2022-12-25T01:42:39.033Z,70.37
2022-12-25T01:45:32.977Z,70.57
2022-12-25T01:48:02.344Z,70.66
2022-12-25T01:50:29.043Z,70.35
2022-12-25T01:52:56.530Z,71.01
2022-12-25T01:55:23.453Z,72.05
2022-12-25T01:57:51.049Z,70.78
2022-12-25T02:00:17.683Z,71.22
2022-12-25T02:02:44.577Z,70.83
2022-12-25T02:05:20.884Z,71.03
2022-12-25T02:07:48.454Z,70.69
2022-12-25T02:10:14.978Z,70.68
2022-12-25T02:12:41.896Z,71.13
2022-12-25T02:15:17.866Z,71.47
2022-12-25T02:18:40.260Z,71.81
2022-12-25T02:21:24.672Z,72.09
2022-12-25T02:24:21.326Z,72.43
2022-12-25T02:26:57.033Z,71.49
2022-12-25T02:29:48.244Z,70.90
2022-12-25T02:33:16.028Z,71.12
2022-12-25T02:35:43.925Z,71.91
2022-12-25T02:38:20.988Z,71.24
2022-12-25T02:40:56.075Z,71.22
2022-12-25T02:43:50.789Z,70.70
2022-12-25T02:46:37.912Z,70.68
2022-12-25T02:49:27.450Z,70.57
2022-12-25T02:52:15.667Z,70.85
2022-12-25T02:55:07.016Z,69.94
2022-12-25T02:57:56.334Z,70.37
2022-12-25T03:00:41.525Z,70.62
2022-12-25T03:03:29.014Z,70.41
2022-12-25T03:06:17.291Z,69.97
2022-12-25T03:08:46.898Z,70.66
2022-12-25T03:11:31.727Z,70.74
2022-12-25T03:14:20.882Z,71.73
2022-12-25T03:16:53.677Z,73.82
2022-12-25T03:19:44.701Z,71.88
2022-12-25T03:22:34.666Z,71.41
2022-12-25T03:25:19.944Z,71.06
2022-12-25T03:27:46.861Z,71.75
2022-12-25T03:30:32.101Z,71.98
2022-12-25T03:33:44.030Z,71.83
2022-12-25T03:36:14.624Z,71.33
2022-12-25T03:38:51.622Z,71.57
2022-12-25T03:41:55.712Z,71.42
2022-12-25T03:44:55.594Z,72.50
2022-12-25T03:47:37.454Z,72.25
2022-12-25T03:50:46.707Z,71.83
2022-12-25T03:53:42.502Z,71.79
2022-12-25T03:56:28.272Z,71.94
2022-12-25T03:59:23.176Z,71.87
2022-12-25T04:02:10.063Z,71.71
2022-12-25T04:04:55.619Z,71.31
2022-12-25T04:07:41.009Z,71.17
2022-12-25T04:10:26.631Z,71.75
2022-12-25T04:13:11.937Z,71.31
2022-12-25T04:15:57.235Z,71.14
2022-12-25T04:18:42.944Z,71.53
2022-12-25T04:21:27.787Z,71.58
2022-12-25T04:24:12.939Z,71.72
2022-12-25T04:26:58.120Z,71.73
2022-12-25T04:29:42.873Z,71.45
2022-12-25T04:32:27.783Z,71.78
2022-12-25T04:35:12.685Z,71.03
2022-12-25T04:37:39.212Z,72.46
2022-12-25T04:40:06.610Z,72.28
2022-12-25T04:42:33.122Z,72.45
2022-12-25T04:44:59.638Z,72.64
2022-12-25T04:47:26.172Z,72.32
2022-12-25T04:49:52.700Z,72.00
2022-12-25T04:52:19.457Z,72.69
2022-12-25T04:54:45.946Z,72.48
2022-12-25T04:57:12.505Z,73.49
2022-12-25T04:59:39.013Z,73.00
2022-12-25T05:02:05.598Z,73.37
2022-12-25T05:04:32.265Z,73.25
2022-12-25T05:06:58.778Z,73.02
2022-12-25T05:09:26.295Z,73.33
2022-12-25T05:11:52.979Z,72.83
2022-12-25T05:14:19.523Z,73.47
2022-12-25T05:16:46.147Z,73.46
2022-12-25T05:19:12.643Z,72.70
2022-12-25T05:21:39.184Z,72.68
2022-12-25T05:24:05.940Z,73.15
2022-12-25T05:26:32.488Z,72.56
2022-12-25T05:28:59.145Z,72.29
2022-12-25T05:31:25.717Z,71.98
2022-12-25T05:33:52.629Z,71.92
2022-12-25T05:36:19.881Z,71.89
2022-12-25T05:38:46.504Z,71.72
2022-12-25T05:41:13.118Z,71.74
2022-12-25T05:43:39.675Z,71.88
2022-12-25T05:46:07.844Z,72.20
2022-12-25T05:48:36.685Z,71.37
2022-12-25T05:51:05.455Z,71.53
2022-12-25T05:53:32.159Z,71.75
2022-12-25T05:56:01.085Z,71.94
2022-12-25T05:58:27.632Z,71.14
2022-12-25T06:00:54.179Z,71.72
2022-12-25T06:03:20.755Z,71.61
2022-12-25T06:05:47.302Z,71.72
2022-12-25T06:08:13.876Z,71.78
2022-12-25T06:10:40.419Z,71.84
2022-12-25T06:13:06.994Z,72.25
2022-12-25T06:15:33.508Z,72.70
2022-12-25T06:18:01.395Z,71.72
2022-12-25T06:20:28.271Z,71.94
2022-12-25T06:22:54.783Z,71.25
2022-12-25T06:25:21.309Z,71.28
2022-12-25T06:27:47.859Z,71.81
2022-12-25T06:30:14.625Z,71.39
2022-12-25T06:32:41.155Z,71.57
2022-12-25T06:35:08.009Z,71.48
2022-12-25T06:37:34.498Z,71.76
2022-12-25T06:40:00.971Z,71.47
2022-12-25T06:42:27.565Z,71.82
2022-12-25T06:44:54.064Z,71.87
2022-12-25T06:47:20.569Z,71.68
2022-12-25T06:49:47.091Z,71.59
2022-12-25T06:52:13.576Z,71.70
2022-12-25T06:54:40.115Z,71.63
2022-12-25T06:57:06.634Z,71.26
2022-12-25T06:59:33.148Z,71.93
2022-12-25T07:01:59.924Z,71.61
2022-12-25T07:04:38.202Z,71.72
2022-12-25T07:07:09.048Z,72.11
2022-12-25T07:09:36.139Z,71.74
2022-12-25T07:12:26.112Z,71.39
2022-12-25T07:14:54.658Z,71.46
2022-12-25T07:17:21.845Z,71.11
2022-12-25T07:19:48.652Z,71.39
2022-12-25T07:22:15.959Z,72.01
2022-12-25T07:24:42.518Z,71.72
2022-12-25T07:27:09.070Z,71.41
2022-12-25T07:29:35.599Z,71.24
2022-12-25T07:32:02.256Z,71.57
2022-12-25T07:34:28.911Z,71.25
2022-12-25T07:36:55.511Z,71.63
2022-12-25T07:39:23.591Z,71.83
2022-12-25T07:41:49.966Z,71.41
2022-12-25T07:44:16.595Z,71.85
2022-12-25T07:46:43.169Z,71.99
2022-12-25T07:49:10.785Z,71.88
2022-12-25T07:51:37.342Z,71.33
2022-12-25T07:54:03.967Z,71.44
2022-12-25T07:56:30.492Z,71.58
2022-12-25T07:58:57.002Z,71.50
2022-12-25T08:01:26.705Z,71.13
2022-12-25T08:03:55.529Z,70.98
2022-12-25T08:06:25.483Z,71.31
2022-12-25T08:08:52.148Z,70.79
2022-12-25T08:11:18.800Z,71.01
2022-12-25T08:13:45.358Z,71.34
2022-12-25T08:16:12.187Z,71.16
2022-12-25T08:18:39.594Z,71.41
2022-12-25T08:21:10.106Z,70.87
2022-12-25T08:23:38.850Z,70.84
2022-12-25T08:26:06.725Z,71.37
2022-12-25T08:28:34.339Z,71.92
2022-12-25T08:31:07.283Z,71.60
2022-12-25T08:33:34.384Z,70.79
2022-12-25T08:36:05.663Z,71.13
2022-12-25T08:38:35.310Z,71.19
2022-12-25T08:41:02.356Z,71.44
2022-12-25T08:43:29.053Z,70.49
2022-12-25T08:45:56.740Z,70.52
2022-12-25T08:48:23.315Z,71.33
2022-12-25T08:50:50.874Z,70.86
2022-12-25T08:53:17.724Z,70.93
2022-12-25T08:55:44.369Z,70.74
2022-12-25T08:58:11.236Z,70.97
2022-12-25T09:00:37.989Z,70.57
2022-12-25T09:03:05.061Z,70.75
2022-12-25T09:05:34.895Z,70.27
2022-12-25T09:08:01.602Z,70.02
2022-12-25T09:10:28.108Z,69.73
2022-12-25T09:12:54.614Z,70.38
2022-12-25T09:15:21.193Z,70.65
2022-12-25T09:17:47.663Z,70.80
2022-12-25T09:20:14.391Z,71.25
2022-12-25T09:22:43.640Z,71.15
2022-12-25T09:25:10.465Z,71.48
2022-12-25T09:27:37.269Z,71.38
2022-12-25T09:30:05.104Z,70.62
2022-12-25T09:32:31.742Z,70.55
2022-12-25T09:34:58.609Z,70.54
2022-12-25T09:37:25.192Z,70.51
2022-12-25T09:39:51.972Z,70.58
2022-12-25T09:42:28.671Z,70.45
2022-12-25T09:44:59.689Z,69.89
2022-12-25T09:47:32.410Z,69.70
2022-12-25T09:50:18.978Z,69.12
2022-12-25T09:52:48.467Z,68.50
2022-12-25T09:55:20.428Z,67.54
2022-12-25T09:58:07.781Z,67.88
2022-12-25T10:00:51.429Z,66.96
2022-12-25T10:03:59.944Z,68.16
2022-12-25T10:07:05.447Z,67.34
2022-12-25T10:09:42.929Z,67.20
2022-12-25T10:12:39.925Z,67.05
2022-12-25T10:15:30.376Z,66.85
2022-12-25T10:18:11.138Z,66.72
2022-12-25T10:20:57.094Z,66.94
2022-12-25T10:23:37.259Z,66.42
2022-12-25T10:26:26.786Z,66.28
2022-12-25T10:29:00.573Z,66.96
2022-12-25T10:31:28.595Z,67.17
2022-12-25T10:33:55.518Z,67.62
2022-12-25T10:36:25.095Z,67.87
2022-12-25T10:38:52.097Z,67.52
2022-12-25T10:41:21.183Z,67.44
2022-12-25T10:43:53.546Z,66.26
2022-12-25T10:46:21.255Z,65.02
2022-12-25T10:48:51.972Z,63.51
2022-12-25T10:51:37.789Z,63.04
2022-12-25T10:54:29.231Z,63.33
2022-12-25T10:56:59.903Z,62.73
2022-12-25T10:59:34.829Z,63.44
2022-12-25T11:02:23.319Z,62.94
2022-12-25T11:04:50.725Z,63.00
2022-12-25T11:07:23.765Z,63.40
2022-12-25T11:10:05.643Z,63.36
2022-12-25T11:20:25.766Z,63.97
2022-12-25T11:22:52.305Z,64.35
2022-12-25T11:25:26.754Z,64.34
2022-12-25T11:28:01.893Z,65.16
2022-12-25T11:30:33.180Z,65.39
2022-12-25T11:33:06.275Z,64.49
2022-12-25T11:35:39.036Z,64.04
2022-12-25T11:38:05.596Z,63.75
2022-12-25T11:40:43.911Z,63.77
2022-12-25T11:43:19.126Z,63.08
2022-12-25T11:45:50.090Z,63.10
2022-12-25T11:48:36.214Z,63.08
2022-12-25T11:51:03.710Z,64.35
2022-12-25T11:53:44.708Z,63.37
2022-12-25T11:56:18.160Z,62.43
2022-12-25T11:58:57.483Z,62.78
2022-12-25T12:01:39.399Z,62.59
2022-12-25T12:04:18.294Z,62.03
2022-12-25T12:06:50.220Z,61.25
2022-12-25T12:09:36.506Z,61.19
2022-12-25T12:12:10.228Z,60.74
2022-12-25T12:15:04.182Z,60.32
2022-12-25T12:17:30.694Z,61.57
2022-12-25T12:19:57.269Z,60.86
2022-12-25T12:22:25.709Z,61.40
2022-12-25T12:25:01.554Z,60.24
2022-12-25T12:27:35.608Z,61.04
2022-12-25T12:30:02.408Z,60.92
2022-12-25T12:32:42.573Z,61.07
2022-12-25T12:35:11.778Z,61.85
2022-12-25T12:37:39.233Z,61.87
2022-12-25T12:40:08.302Z,61.68
2022-12-25T12:42:40.373Z,61.93
2022-12-25T12:45:10.295Z,63.02
2022-12-25T12:47:50.420Z,62.68
2022-12-25T12:50:28.245Z,61.98
2022-12-25T12:52:54.873Z,62.16
2022-12-25T12:55:32.397Z,62.67
2022-12-25T12:58:03.974Z,62.47
2022-12-25T13:00:52.140Z,62.90
2022-12-25T13:03:32.877Z,62.69
2022-12-25T13:06:09.359Z,61.38
2022-12-25T13:08:52.279Z,62.01
2022-12-25T13:11:24.348Z,61.16
2022-12-25T13:13:53.162Z,61.09
2022-12-25T13:16:39.409Z,61.14
2022-12-25T13:19:11.407Z,61.75
2022-12-25T13:21:38.113Z,61.84
2022-12-25T13:24:13.190Z,60.02
2022-12-25T13:26:39.831Z,60.35
2022-12-25T13:29:11.271Z,59.65
2022-12-25T13:31:40.767Z,59.35
2022-12-25T13:34:27.783Z,59.98
2022-12-25T13:36:54.237Z,60.18
2022-12-25T13:39:21.244Z,61.07
2022-12-25T13:42:08.520Z,61.85
2022-12-25T13:44:47.086Z,61.42
2022-12-25T13:47:16.184Z,60.57
2022-12-25T13:49:42.698Z,61.43
2022-12-25T13:52:15.453Z,60.37
2022-12-25T13:55:01.745Z,60.08
2022-12-25T13:57:31.537Z,59.65
2022-12-25T13:59:58.807Z,59.63
2022-12-25T14:02:31.305Z,59.26
2022-12-25T14:04:58.231Z,59.76
2022-12-25T14:07:25.348Z,59.57
2022-12-25T14:10:04.772Z,60.19
2022-12-25T14:12:38.404Z,59.55
2022-12-25T14:15:06.051Z,59.78
2022-12-25T14:17:33.085Z,59.62
2022-12-25T14:20:07.462Z,58.72
2022-12-25T14:22:35.957Z,59.80
2022-12-25T14:25:02.570Z,58.99
2022-12-25T14:27:32.700Z,59.96
2022-12-25T14:30:00.581Z,60.74
2022-12-25T14:32:28.153Z,61.29
2022-12-25T14:34:58.282Z,60.80
2022-12-25T14:37:28.576Z,61.55
2022-12-25T14:40:01.983Z,61.95
2022-12-25T14:42:31.177Z,62.70
2022-12-25T14:45:01.471Z,63.15
2022-12-25T14:47:28.558Z,63.95
2022-12-25T14:49:55.415Z,64.42
2022-12-25T14:52:38.252Z,64.75
2022-12-25T14:55:18.083Z,65.35
2022-12-25T14:57:48.823Z,65.85
2022-12-25T15:00:21.980Z,65.97
2022-12-25T15:02:49.188Z,66.74
2022-12-25T15:05:25.893Z,66.32
2022-12-25T15:08:04.672Z,66.43
2022-12-25T15:13:18.115Z,65.74
2022-12-25T15:15:55.714Z,64.89
2022-12-25T15:18:24.007Z,64.89
2022-12-25T15:20:53.608Z,64.42
2022-12-25T15:23:21.421Z,64.77
2022-12-25T15:25:48.113Z,64.71
2022-12-25T15:28:14.607Z,64.55
2022-12-25T15:30:41.315Z,64.17
2022-12-25T15:33:12.850Z,62.95
2022-12-25T15:35:39.388Z,63.01
2022-12-25T15:38:05.996Z,63.22
2022-12-25T15:40:32.572Z,63.60
2022-12-25T15:42:59.858Z,64.34
2022-12-25T15:45:28.662Z,64.91
2022-12-25T15:47:55.284Z,64.89
2022-12-25T15:50:22.103Z,64.54
2022-12-25T15:52:49.155Z,65.16
2022-12-25T15:55:16.580Z,64.88
2022-12-25T15:57:44.620Z,65.66
2022-12-25T16:00:22.620Z,64.96
2022-12-25T16:02:50.311Z,65.26
2022-12-25T16:05:17.023Z,64.96
2022-12-25T16:07:43.669Z,64.83
2022-12-25T16:10:15.688Z,65.11
2022-12-25T16:12:42.754Z,64.88
2022-12-25T16:15:11.835Z,65.26
2022-12-25T16:17:38.549Z,64.90
2022-12-25T16:20:05.785Z,64.95
2022-12-25T16:22:39.567Z,64.62
2022-12-25T16:25:10.756Z,64.65
2022-12-25T16:27:37.268Z,64.41
2022-12-25T16:30:04.218Z,64.49
2022-12-25T16:32:30.799Z,65.01
2022-12-25T16:34:57.352Z,64.79
2022-12-25T16:37:23.974Z,64.84
2022-12-25T16:39:50.612Z,64.88
2022-12-25T16:42:17.111Z,64.97
2022-12-25T16:44:43.680Z,64.87
2022-12-25T16:47:10.294Z,64.64
2022-12-25T16:49:36.822Z,64.77
2022-12-25T16:52:03.865Z,64.41
2022-12-25T16:54:30.387Z,65.04
2022-12-25T16:56:56.926Z,64.32
2022-12-25T16:59:23.510Z,64.30
2022-12-25T17:01:50.165Z,64.46
2022-12-25T17:04:16.786Z,64.35
2022-12-25T17:06:43.334Z,64.98
2022-12-25T17:09:10.602Z,63.65
2022-12-25T17:11:37.118Z,63.28
2022-12-25T17:14:04.340Z,62.49
2022-12-25T17:16:33.764Z,62.44
2022-12-25T17:19:04.127Z,62.47
2022-12-25T17:21:32.765Z,61.97
2022-12-25T17:24:03.130Z,62.33
2022-12-25T17:26:33.675Z,62.41
2022-12-25T17:29:00.662Z,62.66
2022-12-25T17:31:27.541Z,63.30
2022-12-25T17:33:54.105Z,63.11
2022-12-25T17:36:21.494Z,63.47
2022-12-25T17:38:48.370Z,63.58
2022-12-25T17:41:17.007Z,63.52
2022-12-25T17:43:45.608Z,63.02
2022-12-25T17:46:17.457Z,63.71
2022-12-25T17:48:44.455Z,63.43
2022-12-25T17:51:13.311Z,64.11
2022-12-25T17:53:41.940Z,63.28
2022-12-25T17:56:12.257Z,63.16
2022-12-25T17:58:39.360Z,64.23
2022-12-25T18:01:07.761Z,64.29
2022-12-25T18:03:35.557Z,64.30
2022-12-25T18:06:05.841Z,65.32
2022-12-25T18:08:38.947Z,65.36
2022-12-25T18:11:15.936Z,65.70
2022-12-25T18:13:45.005Z,65.28
2022-12-25T18:16:12.696Z,65.37
2022-12-25T18:18:40.049Z,65.52
2022-12-25T18:21:07.678Z,65.32
2022-12-25T18:23:34.345Z,64.84
2022-12-25T18:26:03.489Z,64.66
2022-12-25T18:28:30.311Z,64.16
2022-12-25T18:30:56.925Z,64.07
2022-12-25T18:33:23.603Z,64.52
2022-12-25T18:35:50.714Z,64.71
2022-12-25T18:38:17.323Z,65.09
2022-12-25T18:40:45.378Z,64.44
2022-12-25T18:43:11.976Z,64.51
2022-12-25T18:45:38.573Z,64.81
2022-12-25T18:48:06.348Z,64.73
2022-12-25T18:50:33.721Z,65.06
2022-12-25T18:53:00.642Z,65.13
2022-12-25T18:55:27.378Z,64.94
2022-12-25T18:57:54.339Z,64.33
2022-12-25T19:00:21.303Z,63.78
2022-12-25T19:02:48.419Z,65.90
2022-12-25T19:05:15.977Z,64.20
2022-12-25T19:07:42.617Z,64.23
2022-12-25T19:10:10.462Z,64.34
2022-12-25T19:12:37.025Z,64.66
2022-12-25T19:15:03.813Z,63.62
2022-12-25T19:17:32.068Z,63.71
2022-12-25T19:19:58.749Z,63.66
2022-12-25T19:22:25.286Z,64.61
2022-12-25T19:24:51.785Z,63.36
2022-12-25T19:27:18.301Z,63.79
2022-12-25T19:29:44.803Z,62.96
2022-12-25T19:32:11.342Z,63.17
2022-12-25T19:34:38.020Z,62.94
2022-12-25T19:37:04.830Z,62.98
2022-12-25T19:39:31.408Z,62.91
2022-12-25T19:41:57.961Z,62.99
2022-12-25T19:44:24.701Z,63.05
2022-12-25T19:46:51.236Z,63.15
2022-12-25T19:49:17.902Z,63.38
2022-12-25T19:51:46.205Z,63.81
2022-12-25T19:54:15.520Z,63.59
2022-12-25T19:56:42.658Z,63.67
2022-12-25T19:59:10.950Z,63.21
2022-12-25T20:01:38.938Z,63.97
2022-12-25T20:04:07.986Z,64.52
2022-12-25T20:06:36.369Z,63.62
2022-12-25T20:09:05.269Z,64.92
2022-12-25T20:11:33.456Z,64.29
2022-12-25T20:14:00.378Z,64.28
2022-12-25T20:16:26.990Z,64.19
2022-12-25T20:18:55.939Z,63.70
2022-12-25T20:21:23.094Z,63.95
2022-12-25T20:23:52.633Z,64.48
2022-12-25T20:26:21.016Z,64.77
2022-12-25T20:28:48.098Z,64.77
2022-12-25T20:31:21.000Z,64.12
2022-12-25T20:33:47.771Z,63.16
2022-12-25T20:36:14.630Z,62.74
2022-12-25T20:38:41.465Z,62.65
2022-12-25T20:41:29.699Z,62.94
2022-12-25T20:43:57.019Z,63.51
2022-12-25T20:46:24.399Z,62.63
2022-12-25T20:48:51.950Z,62.43
2022-12-25T20:51:21.749Z,61.61
2022-12-25T20:53:48.673Z,61.56
2022-12-25T20:56:17.005Z,61.83
2022-12-25T20:58:43.890Z,62.45
2022-12-25T21:01:13.797Z,61.58
2022-12-25T21:03:40.953Z,61.71
2022-12-25T21:06:08.939Z,62.79
2022-12-25T21:08:36.427Z,62.15
2022-12-25T21:11:04.066Z,63.10
2022-12-25T21:13:40.987Z,63.46
2022-12-25T21:16:10.233Z,63.29
2022-12-25T21:18:36.856Z,63.51
2022-12-25T21:21:06.692Z,63.75
2022-12-25T21:23:34.548Z,63.24
2022-12-25T21:26:09.992Z,64.07
2022-12-25T21:28:36.560Z,63.03
2022-12-25T21:31:04.308Z,62.95
2022-12-25T21:33:49.323Z,63.06
2022-12-25T21:36:15.855Z,63.59
2022-12-25T21:38:42.383Z,62.77
2022-12-25T21:41:10.697Z,62.19
2022-12-25T21:43:38.395Z,62.29
2022-12-25T21:46:06.579Z,63.04
2022-12-25T21:48:34.256Z,62.00
2022-12-25T21:51:40.723Z,62.65
2022-12-25T21:54:07.648Z,62.21
2022-12-25T21:56:43.121Z,62.29
2022-12-25T21:59:12.014Z,61.69
2022-12-25T22:01:38.745Z,60.98
2022-12-25T22:04:07.071Z,60.52
2022-12-25T22:06:52.786Z,61.14
2022-12-25T22:09:19.989Z,61.66
2022-12-25T22:12:05.712Z,62.30
2022-12-25T22:14:54.360Z,62.27
2022-12-25T22:17:45.758Z,61.48
2022-12-25T22:20:16.379Z,60.77
2022-12-25T22:22:43.720Z,61.45
2022-12-25T22:25:11.079Z,61.37
2022-12-25T22:27:38.936Z,61.70
2022-12-25T22:30:07.249Z,61.91
2022-12-25T22:32:34.411Z,62.37
2022-12-25T22:35:01.049Z,62.56
2022-12-25T22:37:27.594Z,62.27
2022-12-25T22:39:54.123Z,62.74
2022-12-25T22:42:20.931Z,62.53
2022-12-25T22:44:47.479Z,62.26
2022-12-25T22:47:14.147Z,62.58
2022-12-25T22:49:40.676Z,61.52
2022-12-25T22:52:09.695Z,61.90
2022-12-25T22:54:36.916Z,61.61
2022-12-25T22:57:03.505Z,63.04
2022-12-25T22:59:30.100Z,62.61
2022-12-25T23:01:56.728Z,63.15
2022-12-25T23:04:23.903Z,62.55
2022-12-25T23:06:50.809Z,62.58
2022-12-25T23:09:24.460Z,61.51
2022-12-25T23:11:51.426Z,62.24
2022-12-25T23:14:36.877Z,63.05
2022-12-25T23:17:03.428Z,62.99
2022-12-25T23:19:48.805Z,62.76
2022-12-25T23:22:34.029Z,63.14
2022-12-25T23:25:18.904Z,63.50
2022-12-25T23:27:45.975Z,63.35
2022-12-25T23:30:14.716Z,65.31
2022-12-25T23:32:41.930Z,64.96
2022-12-25T23:35:08.820Z,65.66
2022-12-25T23:37:35.592Z,65.04
2022-12-25T23:40:02.290Z,65.46
2022-12-25T23:42:28.871Z,65.38
2022-12-25T23:44:55.369Z,66.03
2022-12-25T23:47:21.844Z,65.09
2022-12-25T23:49:48.369Z,65.01
2022-12-25T23:52:15.129Z,65.43
2022-12-25T23:54:41.629Z,65.27
2022-12-25T23:57:08.128Z,65.60
2022-12-25T23:59:34.725Z,65.15
